Time;durP1;ratioP1;P1;durP2;ratioP2;P2;SDS_P1;SDS_P2;PMS_P1;PMS_P2;Temp;Humidity;BMP_temperature;BMP_pressure;BME280_temperature;BME280_humidity;BME280_pressure;Samples;Min_cycle;Max_cycle;Signal;HPM_P1;HPM_P2
2023/09/21 00:08:23;;;;;;;3.07;2.00;;;;;;;16.80;69.90;98152.47;7269401;40;20272;31
2023/09/21 00:19:07;;;;;;;3.62;1.67;;;;;;;16.84;69.25;98146.31;7317878;39;20341;31
2023/09/21 00:24:40;;;;;;;3.20;2.00;;;;;;;16.67;69.80;98145.31;7217204;40;21214;31
2023/09/21 00:30:14;;;;;;;3.65;1.90;;;;;;;16.73;70.62;98138.09;7215321;40;20253;31
2023/09/21 00:35:53;;;;;;;2.36;2.00;;;;;;;16.76;70.39;98140.38;7302388;39;20792;31
2023/09/21 00:41:30;;;;;;;4.40;2.15;;;;;;;16.72;70.63;98129.09;7267311;39;20243;31
2023/09/21 00:47:06;;;;;;;2.70;2.00;;;;;;;16.56;71.26;98129.72;7271320;40;20339;31
2023/09/21 00:52:28;;;;;;;3.23;2.10;;;;;;;16.48;70.94;98130.06;7209040;40;20326;31
2023/09/21 00:58:04;;;;;;;5.60;2.00;;;;;;;16.31;72.50;98115.44;7208454;40;20264;31
2023/09/21 01:08:43;;;;;;;3.05;2.00;;;;;;;16.06;72.17;98094.63;7301781;39;21838;31
2023/09/21 01:14:21;;;;;;;3.90;2.10;;;;;;;16.06;74.06;98094.63;7302919;40;20264;31
2023/09/21 01:19:56;;;;;;;3.47;2.50;;;;;;;16.09;72.41;98098.78;7277517;39;20383;31
2023/09/21 01:25:33;;;;;;;3.07;2.27;;;;;;;16.15;73.16;98095.13;7261708;40;20300;31
2023/09/21 01:31:12;;;;;;;4.47;2.20;;;;;;;16.36;72.98;98097.38;7300948;39;20258;31
2023/09/21 01:36:46;;;;;;;5.30;2.27;;;;;;;16.37;73.33;98084.59;7210725;40;20269;31
2023/09/21 01:42:23;;;;;;;2.87;2.03;;;;;;;16.62;72.68;98077.16;7240547;40;20339;31
2023/09/21 01:47:58;;;;;;;3.07;2.30;;;;;;;16.70;72.78;98081.44;7245442;40;20348;31
2023/09/21 01:53:34;;;;;;;4.43;2.00;;;;;;;16.88;72.31;98074.03;7250678;40;20252;31
2023/09/21 01:59:13;;;;;;;2.70;2.00;;;;;;;16.90;72.96;98066.44;7228908;40;20243;31
2023/09/21 02:04:48;;;;;;;2.70;1.90;;;;;;;17.02;71.85;98053.69;7210162;40;20345;31
2023/09/21 02:10:25;;;;;;;5.77;2.43;;;;;;;17.11;71.71;98057.69;7259116;40;20694;31
2023/09/21 02:16:02;;;;;;;3.30;2.25;;;;;;;17.00;72.05;98039.47;7194334;40;20235;31
2023/09/21 02:21:24;;;;;;;3.60;2.10;;;;;;;17.16;72.62;98048.00;7241016;40;20853;31
2023/09/21 02:26:58;;;;;;;4.73;2.13;;;;;;;17.11;72.57;98035.91;7248768;40;20373;31
2023/09/21 02:32:34;;;;;;;2.60;1.90;;;;;;;17.18;72.96;98029.53;7292469;39;20248;31
2023/09/21 02:38:09;;;;;;;3.37;2.20;;;;;;;17.22;73.72;98015.19;7288849;39;20811;31
2023/09/21 02:43:45;;;;;;;2.77;2.17;;;;;;;17.37;73.25;98022.88;7272646;40;20504;31
2023/09/21 02:49:20;;;;;;;2.60;2.00;;;;;;;17.35;74.69;98008.66;7259131;39;20254;31
2023/09/21 02:54:41;;;;;;;2.70;2.10;;;;;;;17.30;73.69;98003.09;7238781;40;20242;31
2023/09/21 03:00:21;;;;;;;3.85;2.20;;;;;;;17.25;75.08;98003.81;7228549;40;20450;31
2023/09/21 03:05:56;;;;;;;4.83;2.50;;;;;;;17.21;75.72;97997.19;7269973;39;20252;31
2023/09/21 03:11:31;;;;;;;5.97;2.20;;;;;;;17.18;75.98;97994.13;7246846;40;20402;31
2023/09/21 03:22:13;;;;;;;6.00;2.30;;;;;;;17.32;76.44;97999.09;7285684;40;20265;31
2023/09/21 03:27:32;;;;;;;3.00;2.20;;;;;;;17.54;75.51;98002.84;7255903;40;20307;31
2023/09/21 03:33:08;;;;;;;3.40;2.10;;;;;;;17.58;75.44;97981.41;7253826;40;20252;31
2023/09/21 03:38:44;;;;;;;4.30;2.30;;;;;;;17.68;75.16;97968.00;7258028;40;20252;31
2023/09/21 03:44:05;;;;;;;4.73;2.17;;;;;;;17.65;75.24;97960.28;7270066;39;20237;31
2023/09/21 03:49:40;;;;;;;4.50;2.20;;;;;;;17.68;75.57;97938.03;7262020;40;20254;31
2023/09/21 03:55:17;;;;;;;4.23;2.43;;;;;;;17.58;75.55;97932.34;7231777;40;20518;31
2023/09/21 04:00:52;;;;;;;3.63;2.30;;;;;;;17.51;75.93;97940.63;7268732;40;20265;31
2023/09/21 04:06:17;;;;;;;5.35;2.60;;;;;;;17.62;75.27;97954.50;7247441;40;20274;31
2023/09/21 04:11:47;;;;;;;2.73;2.10;;;;;;;17.64;75.64;97939.53;7299922;39;20352;31
2023/09/21 04:17:09;;;;;;;4.00;2.60;;;;;;;17.45;76.09;97948.94;7276257;40;20261;31
2023/09/21 04:22:31;;;;;;;3.00;2.60;;;;;;;17.57;75.85;97949.75;7225042;40;20597;31
2023/09/21 04:28:07;;;;;;;4.55;2.40;;;;;;;17.61;75.36;97950.94;7213296;40;20233;31
2023/09/21 04:33:33;;;;;;;5.00;2.30;;;;;;;17.65;74.97;97949.38;7319115;40;21108;31
2023/09/21 04:39:08;;;;;;;3.20;2.30;;;;;;;17.68;75.60;97945.38;7250766;39;20233;31
2023/09/21 04:44:45;;;;;;;3.30;2.30;;;;;;;17.62;75.22;97938.97;7307216;39;20276;31
2023/09/21 04:50:03;;;;;;;3.90;2.17;;;;;;;17.65;75.02;97946.66;7038884;40;21161;31
2023/09/21 04:55:25;;;;;;;3.10;2.60;;;;;;;17.59;76.08;97946.81;7262356;40;20457;31
2023/09/21 05:01:09;;;;;;;2.85;2.40;;;;;;;17.57;76.73;97936.94;7227754;40;20850;31
2023/09/21 05:06:36;;;;;;;4.00;2.80;;;;;;;17.68;76.04;97932.56;7224188;40;20344;31
2023/09/21 05:12:07;;;;;;;;;;;;;;;;;;;;;
2023/09/21 05:17:36;;;;;;;2.90;2.30;;;;;;;17.73;75.48;97934.53;7276916;39;20864;31
2023/09/21 05:22:55;;;;;;;3.10;2.50;;;;;;;17.78;76.00;97943.66;7265539;40;20260;31
2023/09/21 05:28:29;;;;;;;4.00;2.80;;;;;;;17.80;76.26;97943.41;7315817;39;20274;31
2023/09/21 05:34:06;;;;;;;5.20;2.60;;;;;;;17.78;76.49;97942.81;7306094;39;20348;31
2023/09/21 05:39:42;;;;;;;4.30;2.80;;;;;;;17.78;76.53;97943.66;7275231;39;20239;31
2023/09/21 05:45:20;;;;;;;3.60;2.60;;;;;;;17.72;76.62;97952.81;7308370;39;20402;31
2023/09/21 05:50:55;;;;;;;2.60;2.30;;;;;;;17.67;78.10;97947.25;7315646;39;20237;31
2023/09/21 05:56:19;;;;;;;4.10;2.70;;;;;;;17.62;77.80;97955.31;7299484;40;20235;31
2023/09/21 06:01:37;;;;;;;3.07;2.77;;;;;;;17.67;77.63;97965.50;7324470;39;21333;31
2023/09/21 06:07:21;;;;;;;4.43;2.70;;;;;;;17.67;78.08;97962.78;7323260;39;20240;31
2023/09/21 06:12:55;;;;;;;5.27;2.73;;;;;;;17.73;77.63;97959.91;7269351;40;20236;31
2023/09/21 06:18:27;;;;;;;4.80;2.80;;;;;;;17.82;77.90;97955.72;7224097;40;20249;31
2023/09/21 06:24:06;;;;;;;3.60;2.70;;;;;;;17.92;78.54;97952.34;7196217;40;20335;31
2023/09/21 06:29:27;;;;;;;6.43;3.33;;;;;;;18.00;78.99;97951.97;7168000;40;20316;31
2023/09/21 06:34:48;;;;;;;8.03;3.50;;;;;;;18.11;78.36;97948.38;7242982;40;20376;31
2023/09/21 06:40:24;;;;;;;6.72;3.86;;;;;;;18.12;78.93;97930.94;7327635;39;20252;31
2023/09/21 06:46:00;;;;;;;5.84;2.98;;;;;;;18.22;79.08;97924.81;7255572;40;20245;31
2023/09/21 06:51:21;;;;;;;4.80;3.52;;;;;;;18.31;78.51;97920.59;7304002;39;20324;31
2023/09/21 06:57:03;;;;;;;5.10;3.80;;;;;;;18.33;79.09;97918.47;7331716;39;20274;31
2023/09/21 07:07:22;;;;;;;3.52;2.80;;;;;;;18.61;78.73;97903.91;7319051;39;21276;31
2023/09/21 07:13:03;;;;;;;6.90;2.90;;;;;;;18.77;78.89;97890.25;7301213;39;20244;31
2023/09/21 07:18:22;;;;;;;4.82;3.80;;;;;;;18.89;78.45;97890.97;7270604;39;20260;31
2023/09/21 07:23:57;;;;;;;16.30;10.55;;;;;;;18.97;77.80;97884.25;7318980;39;20247;31
2023/09/21 07:29:35;;;;;;;4.30;3.20;;;;;;;19.02;78.07;97880.75;7261565;40;20327;31
2023/09/21 07:34:56;;;;;;;9.48;3.00;;;;;;;19.06;78.43;97884.63;7228785;40;20332;31
2023/09/21 07:40:32;;;;;;;5.17;2.80;;;;;;;19.09;78.98;97873.19;7254378;40;20334;31
2023/09/21 07:46:08;;;;;;;3.54;2.62;;;;;;;19.19;78.97;97865.13;7289599;39;20340;31
2023/09/21 07:51:44;;;;;;;4.57;3.00;;;;;;;19.29;79.34;97848.88;7289392;39;20237;31
2023/09/21 07:57:20;;;;;;;6.80;3.20;;;;;;;19.39;78.19;97850.91;7296433;39;20697;31
2023/09/21 08:02:57;;;;;;;6.60;3.00;;;;;;;19.44;79.45;97837.34;7273104;39;20364;31
2023/09/21 08:08:36;;;;;;;5.05;3.45;;;;;;;19.57;77.85;97843.19;7239748;40;20695;31
2023/09/21 08:13:58;;;;;;;5.90;3.00;;;;;;;19.71;78.45;97847.19;7207092;40;20737;31
2023/09/21 08:19:33;;;;;;;4.20;3.10;;;;;;;19.83;79.01;97836.09;7265707;40;20254;31
2023/09/21 08:24:53;;;;;;;3.67;2.70;;;;;;;19.99;78.06;97839.78;7277640;40;20260;31
2023/09/21 08:30:29;;;;;;;3.65;2.30;;;;;;;20.08;77.51;97843.69;7271972;40;20293;31
2023/09/21 08:41:09;;;;;;;4.27;2.40;;;;;;;20.27;77.49;97823.88;7290895;39;20261;31
2023/09/21 08:51:48;;;;;;;2.90;2.30;;;;;;;20.51;74.93;97831.72;7302548;39;21112;31
2023/09/21 08:57:22;;;;;;;3.40;2.30;;;;;;;20.64;73.80;97832.09;7301352;39;20370;31
2023/09/21 09:02:57;;;;;;;3.70;2.40;;;;;;;20.77;72.79;97840.91;7233389;40;20256;31
2023/09/21 09:08:17;;;;;;;3.45;2.50;;;;;;;20.84;73.65;97841.53;7239525;40;21141;31
2023/09/21 09:13:53;;;;;;;3.60;2.30;;;;;;;20.89;73.00;97827.84;7238506;40;20241;31
2023/09/21 09:19:29;;;;;;;3.00;2.70;;;;;;;21.02;72.82;97821.87;7257421;39;20236;31
2023/09/21 09:25:10;;;;;;;4.12;2.55;;;;;;;21.13;72.25;97801.69;7278090;40;20653;31
2023/09/21 09:30:48;;;;;;;3.95;2.30;;;;;;;21.17;71.17;97800.06;7230709;40;20238;31
2023/09/21 09:36:09;;;;;;;5.07;2.60;;;;;;;21.22;71.00;97804.72;7253689;40;20268;31
2023/09/21 09:41:43;;;;;;;3.80;2.30;;;;;;;21.17;71.21;97791.84;7251064;40;20264;31
2023/09/21 09:47:20;;;;;;;3.33;2.40;;;;;;;21.18;71.45;97798.97;7237897;40;20245;31
2023/09/21 09:53:13;;;;;;;3.03;2.60;;;;;;;21.18;70.11;97792.66;7217898;40;20325;31
2023/09/21 10:03:52;;;;;;;7.22;2.80;;;;;;;21.23;70.77;97790.78;7243798;40;20511;31
2023/09/21 10:09:27;;;;;;;4.20;2.73;;;;;;;21.32;70.51;97772.69;7270422;39;20240;31
2023/09/21 10:15:03;;;;;;;3.90;2.85;;;;;;;21.46;70.94;97776.56;7280443;39;20260;31
2023/09/21 10:25:50;;;;;;;3.30;2.40;;;;;;;21.66;71.00;97769.47;7318585;39;21058;31
2023/09/21 10:31:25;;;;;;;4.25;2.75;;;;;;;21.83;70.83;97759.87;7276189;39;20385;31
2023/09/21 10:37:00;;;;;;;3.85;2.55;;;;;;;22.24;70.00;97757.97;7238629;40;20241;31
2023/09/21 10:42:53;;;;;;;5.80;2.80;;;;;;;22.58;67.73;97744.44;7219183;40;20238;31
2023/09/21 10:48:14;;;;;;;3.42;2.50;;;;;;;22.71;69.05;97734.78;7181255;40;20242;31
2023/09/21 10:53:49;;;;;;;5.30;2.70;;;;;;;22.78;68.79;97711.41;7208353;40;20386;31
2023/09/21 10:59:25;;;;;;;3.03;2.73;;;;;;;22.79;67.56;97709.47;7247552;40;20811;31
2023/09/21 11:05:01;;;;;;;2.95;2.40;;;;;;;22.74;66.52;97699.34;7254825;40;20345;31
2023/09/21 11:10:35;;;;;;;4.48;2.48;;;;;;;22.76;67.87;97699.91;7230275;40;20780;31
2023/09/21 11:16:14;;;;;;;2.70;2.22;;;;;;;22.78;65.79;97691.34;7174968;40;20261;31
2023/09/21 11:26:51;;;;;;;4.00;2.60;;;;;;;22.67;66.36;97681.50;7149119;40;20254;31
2023/09/21 11:37:29;;;;;;;6.15;2.65;;;;;;;22.78;67.04;97664.69;7312217;39;20267;31
2023/09/21 11:42:47;;;;;;;6.70;2.50;;;;;;;22.89;66.64;97654.47;7101111;39;20233;31
2023/09/21 11:48:22;;;;;;;5.13;3.03;;;;;;;22.96;67.71;97660.47;7248746;40;20241;31
2023/09/21 11:54:00;;;;;;;5.00;2.55;;;;;;;23.02;65.65;97640.13;7262803;40;20372;31
2023/09/21 11:59:33;;;;;;;3.10;2.55;;;;;;;23.58;65.31;97629.53;7239197;40;20262;31
2023/09/21 12:04:54;;;;;;;4.07;2.50;;;;;;;23.73;63.39;97617.56;7220448;40;20260;31
2023/09/21 12:10:29;;;;;;;3.05;2.55;;;;;;;23.43;63.04;97615.06;7233429;40;20316;31
2023/09/21 12:21:05;;;;;;;2.60;2.40;;;;;;;23.23;66.59;97605.88;7339278;39;20255;31
2023/09/21 12:26:37;;;;;;;3.40;2.60;;;;;;;23.17;67.13;97600.69;7288760;39;21974;31
2023/09/21 12:32:10;;;;;;;4.22;2.50;;;;;;;23.16;67.27;97610.06;7292479;39;21478;31
2023/09/21 12:37:30;;;;;;;2.95;2.30;;;;;;;23.15;68.58;97597.41;7254119;40;20253;31
2023/09/21 12:43:09;;;;;;;3.33;2.30;;;;;;;23.04;67.28;97593.91;7279400;39;20261;31
2023/09/21 12:48:30;;;;;;;2.60;1.98;;;;;;;23.08;66.72;97580.44;7272701;40;21101;31
2023/09/21 12:54:07;;;;;;;6.40;2.08;;;;;;;23.05;65.49;97559.81;7305589;39;20281;31
2023/09/21 12:59:41;;;;;;;3.65;2.00;;;;;;;23.09;65.97;97560.88;7279564;40;20261;31
2023/09/21 13:05:13;;;;;;;2.78;1.80;;;;;;;23.13;66.36;97550.12;7292144;40;20244;31
2023/09/21 13:10:48;;;;;;;4.40;2.17;;;;;;;23.17;65.71;97535.53;7258396;40;20259;31
2023/09/21 13:16:24;;;;;;;3.25;1.90;;;;;;;23.18;63.74;97526.19;7259195;40;20273;31
2023/09/21 13:21:47;;;;;;;2.40;2.10;;;;;;;23.29;64.15;97529.66;7266131;39;20283;31
2023/09/21 13:27:06;;;;;;;4.70;2.10;;;;;;;23.29;64.42;97503.00;7268152;39;20311;31
2023/09/21 13:32:43;;;;;;;2.50;2.05;;;;;;;23.38;64.10;97488.59;7285065;40;20433;31
2023/09/21 13:38:03;;;;;;;2.87;2.20;;;;;;;23.46;64.59;97488.00;7247058;40;20315;31
2023/09/21 13:43:38;;;;;;;3.50;2.23;;;;;;;23.55;65.04;97480.75;7299937;39;20255;31
2023/09/21 13:49:15;;;;;;;3.60;2.00;;;;;;;23.62;64.48;97476.53;7305896;39;20248;31
2023/09/21 13:54:35;;;;;;;2.05;1.80;;;;;;;23.81;64.50;97460.06;7294951;39;20251;31
2023/09/21 13:59:53;;;;;;;4.28;2.30;;;;;;;23.94;63.56;97450.28;7334600;39;20579;31
2023/09/21 14:05:30;;;;;;;5.30;2.00;;;;;;;23.89;63.16;97444.84;7280092;40;20771;31
2023/09/21 14:11:05;;;;;;;3.08;2.00;;;;;;;23.89;62.27;97442.09;7260548;40;20864;31
2023/09/21 14:16:40;;;;;;;5.62;2.00;;;;;;;23.86;62.88;97434.44;7256826;40;20257;31
2023/09/21 14:27:18;;;;;;;2.87;1.90;;;;;;;23.84;63.66;97440.22;7276641;39;20258;31
2023/09/21 14:32:54;;;;;;;8.50;2.30;;;;;;;23.91;62.81;97442.63;7279467;40;20398;31
2023/09/21 14:38:29;;;;;;;4.53;1.80;;;;;;;24.07;62.59;97439.34;7257932;40;20423;31
2023/09/21 14:44:07;;;;;;;3.80;1.90;;;;;;;24.12;62.16;97431.03;7219650;40;20242;31
2023/09/21 14:49:27;;;;;;;5.15;2.20;;;;;;;24.18;60.32;97407.00;7214699;40;20260;31
2023/09/21 14:54:49;;;;;;;3.30;2.00;;;;;;;24.11;60.20;97409.28;7256652;40;20492;31
2023/09/21 15:00:22;;;;;;;2.95;1.90;;;;;;;24.06;61.32;97398.34;7283833;40;20259;31
2023/09/21 15:05:42;;;;;;;5.65;1.98;;;;;;;24.06;61.46;97415.69;7194491;40;20245;31
2023/09/21 15:11:17;;;;;;;2.83;1.90;;;;;;;24.00;61.38;97416.06;7262923;40;20265;31
2023/09/21 15:16:53;;;;;;;3.60;1.93;;;;;;;24.05;62.25;97418.72;7271523;39;20326;31
2023/09/21 15:22:28;;;;;;;2.90;1.95;;;;;;;24.10;62.26;97400.22;7250868;40;20241;31
2023/09/21 15:27:51;;;;;;;5.40;1.80;;;;;;;24.24;61.46;97403.06;7239010;40;21694;31
2023/09/21 15:33:29;;;;;;;2.22;1.70;;;;;;;24.26;60.91;97391.78;7277530;40;20241;31
2023/09/21 15:38:49;;;;;;;2.30;1.70;;;;;;;24.30;60.88;97388.13;7251840;40;20299;31
2023/09/21 15:44:10;;;;;;;4.40;2.20;;;;;;;24.28;61.02;97392.28;7272352;40;20337;31
2023/09/21 15:49:46;;;;;;;4.46;2.06;;;;;;;24.15;62.99;97380.91;7304511;39;20262;31
2023/09/21 15:55:23;;;;;;;2.75;2.00;;;;;;;24.14;62.05;97375.66;7288213;39;20252;31
2023/09/21 16:00:58;;;;;;;2.97;2.10;;;;;;;24.04;62.43;97376.66;7266508;40;20245;31
2023/09/21 16:06:48;;;;;;;;;;;;;;;;;;;;;
2023/09/21 16:12:11;;;;;;;4.82;2.08;;;;;;;23.82;64.90;97348.06;7159699;40;20329;31
2023/09/21 16:17:32;;;;;;;4.57;2.02;;;;;;;23.75;66.34;97349.25;7198618;40;20254;31
2023/09/21 16:23:03;;;;;;;3.25;2.20;;;;;;;23.64;69.17;97353.25;7257854;40;20240;31
2023/09/21 16:28:38;;;;;;;3.90;2.05;;;;;;;23.56;69.86;97342.09;7238505;40;20242;31
2023/09/21 16:34:14;;;;;;;2.97;1.98;;;;;;;23.51;69.40;97350.41;7234817;40;20444;31
2023/09/21 16:39:51;;;;;;;4.10;1.90;;;;;;;23.42;71.24;97316.41;7221987;40;20328;31
2023/09/21 16:45:11;;;;;;;3.60;2.65;;;;;;;23.36;72.31;97316.47;7273853;40;20252;31
2023/09/21 16:50:46;;;;;;;4.10;1.83;;;;;;;23.19;73.36;97312.56;7282495;40;20427;31
2023/09/21 16:56:23;;;;;;;10.25;9.25;;;;;;;23.08;73.81;97311.84;7270778;39;20245;31
2023/09/21 17:01:43;;;;;;;6.85;2.90;;;;;;;23.04;72.96;97319.06;7302140;39;20251;31
2023/09/21 17:07:15;;;;;;;7.38;2.40;;;;;;;23.00;72.46;97312.50;7298903;40;20448;31
2023/09/21 17:12:53;;;;;;;4.05;2.65;;;;;;;22.99;73.17;97319.13;7233548;40;20781;31
2023/09/21 17:23:30;;;;;;;2.50;2.15;;;;;;;22.73;74.80;97299.34;7304067;39;21233;31
2023/09/21 17:34:06;;;;;;;2.40;1.40;;;;;;;22.13;70.27;97426.97;7309742;39;20239;31
2023/09/21 17:39:26;;;;;;;3.05;1.40;;;;;;;21.73;67.18;97468.28;7282512;40;20251;31
2023/09/21 17:45:03;;;;;;;4.18;1.20;;;;;;;21.30;69.97;97491.72;7247660;40;20249;31
2023/09/21 17:50:38;;;;;;;6.45;1.58;;;;;;;20.63;73.96;97503.78;7220660;40;20238;31
2023/09/21 17:55:58;;;;;;;3.08;1.23;;;;;;;20.43;75.45;97531.97;7191217;40;20284;31
2023/09/21 18:01:34;;;;;;;2.70;1.30;;;;;;;20.28;75.98;97605.75;7205968;40;20238;31
2023/09/21 18:07:11;;;;;;;4.85;1.50;;;;;;;19.94;77.14;97596.31;7251237;40;20350;31
2023/09/21 18:12:46;;;;;;;2.35;1.42;;;;;;;19.84;77.28;97591.59;7248200;40;20491;31
2023/09/21 18:18:07;;;;;;;3.10;1.40;;;;;;;19.65;77.29;97609.56;7237047;40;20296;31
2023/09/21 18:23:41;;;;;;;4.53;0.98;;;;;;;19.60;78.64;97625.91;7038705;40;20256;31
2023/09/21 18:29:00;;;;;;;2.22;1.25;;;;;;;19.58;77.06;97630.81;7231370;39;20248;31
2023/09/21 18:34:33;;;;;;;1.27;1.10;;;;;;;19.52;78.18;97627.25;7259334;40;20252;31
2023/09/21 18:40:23;;;;;;;2.65;1.20;;;;;;;19.47;78.07;97640.88;7279917;39;20472;31
2023/09/21 18:45:31;;;;;;;3.28;1.35;;;;;;;19.43;78.30;97626.06;7237802;40;20242;31
2023/09/21 18:50:59;;;;;;;2.10;1.00;;;;;;;19.41;78.98;97619.16;7296841;40;20263;31
2023/09/21 18:56:36;;;;;;;1.70;1.02;;;;;;;19.39;79.00;97615.91;7270656;39;20255;31
2023/09/21 19:02:12;;;;;;;1.70;1.10;;;;;;;19.46;77.42;97619.25;7318008;39;20329;31
2023/09/21 19:07:33;;;;;;;1.77;1.00;;;;;;;19.46;77.46;97621.97;7296979;39;20345;31
2023/09/21 19:23:54;;;;;;;3.18;1.30;;;;;;;19.30;78.74;97683.87;7138193;40;20260;31
2023/09/21 19:29:30;;;;;;;1.60;1.10;;;;;;;19.20;78.59;97695.50;7274007;39;20289;31
2023/09/21 19:34:51;;;;;;;2.72;1.40;;;;;;;19.08;79.96;97719.44;7279052;39;20256;31
2023/09/21 19:40:21;;;;;;;1.60;1.17;;;;;;;18.96;80.12;97704.25;7295436;39;20260;31
2023/09/21 19:51:00;;;;;;;2.23;1.30;;;;;;;18.69;82.92;97701.53;7283889;39;21063;31
2023/09/21 20:01:24;;;;;;;2.60;1.60;;;;;;;18.48;84.24;97716.75;7297768;39;21085;31
2023/09/21 20:12:05;;;;;;;3.67;1.50;;;;;;;18.37;86.11;97715.00;7363584;39;21106;31
2023/09/21 20:17:26;;;;;;;2.90;1.60;;;;;;;18.47;85.01;97710.47;7320352;39;20240;31
2023/09/21 20:22:47;;;;;;;2.30;1.40;;;;;;;18.53;84.86;97708.69;7289387;39;20255;31
2023/09/21 20:28:26;;;;;;;4.60;1.80;;;;;;;18.53;85.07;97691.47;7278518;39;20260;31
2023/09/21 20:33:46;;;;;;;4.95;1.75;;;;;;;18.60;84.19;97689.41;7263197;39;20783;31
2023/09/21 20:39:21;;;;;;;3.53;1.70;;;;;;;18.57;84.87;97712.56;7274841;39;20256;31
2023/09/21 20:44:57;;;;;;;2.55;1.90;;;;;;;18.55;85.05;97698.34;7320243;39;20241;31
2023/09/21 20:50:32;;;;;;;1.60;1.30;;;;;;;18.64;84.98;97704.19;7243027;39;20388;31
2023/09/21 20:56:07;;;;;;;3.83;1.33;;;;;;;18.62;84.64;97725.44;7213883;40;20265;31
2023/09/21 21:01:44;;;;;;;1.70;1.50;;;;;;;18.58;85.28;97716.94;7200135;40;20403;31
2023/09/21 21:07:05;;;;;;;1.95;1.50;;;;;;;18.53;84.62;97746.06;7259956;40;20267;31
2023/09/21 21:12:26;;;;;;;2.17;1.33;;;;;;;18.48;86.02;97741.31;7305851;39;20462;31
2023/09/21 21:23:07;;;;;;;1.75;1.20;;;;;;;18.54;85.11;97748.53;7359301;39;21079;31
2023/09/21 21:28:28;;;;;;;1.00;0.90;;;;;;;18.54;83.26;97737.63;7285920;40;20407;31
2023/09/21 21:33:49;;;;;;;1.60;1.10;;;;;;;18.42;82.35;97720.53;7297681;40;20236;31
2023/09/21 21:39:28;;;;;;;1.73;1.00;;;;;;;18.27;82.42;97731.22;7304397;39;20401;31
2023/09/21 21:45:04;;;;;;;2.53;1.17;;;;;;;18.16;81.19;97741.19;7305388;39;20305;31
2023/09/21 21:50:40;;;;;;;2.13;1.40;;;;;;;18.02;80.65;97743.44;7288153;39;20244;31
2023/09/21 21:56:17;;;;;;;1.77;1.07;;;;;;;17.99;80.20;97754.81;7247328;40;20248;31
2023/09/21 22:01:38;;;;;;;1.30;1.03;;;;;;;17.90;80.35;97756.31;7271202;40;20257;31
2023/09/21 22:06:58;;;;;;;1.57;1.07;;;;;;;17.89;80.85;97751.13;7277385;39;20289;31
2023/09/21 22:12:35;;;;;;;1.70;1.00;;;;;;;17.81;80.18;97759.72;7278839;40;20244;31
2023/09/21 22:18:13;;;;;;;1.77;1.10;;;;;;;17.79;80.45;97764.56;7261605;40;20253;31
2023/09/21 22:23:31;;;;;;;1.80;1.20;;;;;;;17.70;79.95;97760.59;7202648;40;20304;31
2023/09/21 22:29:05;;;;;;;2.30;1.17;;;;;;;17.63;79.99;97777.13;7193127;40;20270;31
2023/09/21 22:39:44;;;;;;;1.70;1.30;;;;;;;17.58;79.31;97777.03;7252970;40;20279;31
2023/09/21 22:50:23;;;;;;;1.70;1.10;;;;;;;17.52;79.12;97791.59;7301772;39;20263;31
2023/09/21 23:01:25;;;;;;;3.13;1.20;;;;;;;17.45;78.99;97790.94;7331611;39;20343;31
2023/09/21 23:12:04;;;;;;;2.12;1.26;;;;;;;17.34;78.98;97783.63;7276356;40;20308;31
2023/09/21 23:22:29;;;;;;;1.73;1.20;;;;;;;17.32;78.73;97816.59;7257448;39;20267;31
2023/09/21 23:28:03;;;;;;;1.53;1.10;;;;;;;17.23;78.85;97798.16;7338342;39;20236;31
2023/09/21 23:33:37;;;;;;;2.20;1.20;;;;;;;17.15;79.10;97807.53;7333859;39;20805;31
2023/09/21 23:38:59;;;;;;;1.70;1.20;;;;;;;17.18;79.00;97830.72;7359802;39;20332;31
2023/09/21 23:44:35;;;;;;;1.33;1.23;;;;;;;17.12;79.51;97835.25;7357346;39;20336;31
2023/09/21 23:50:11;;;;;;;3.40;1.30;;;;;;;17.20;79.55;97823.16;7297650;39;20244;31
2023/09/21 23:55:48;;;;;;;2.70;1.20;;;;;;;17.24;79.12;97836.06;7243265;40;20256;31
